Hauptseite
METAR-TAF:

METAR-TAF

Flughäfen :

Berlin, Deutschland

Flughafen Berlin-Tegel

Breite: 52-34N, Länge: 013-19E, Höhe: 37 m

Beobachtung

Neuester Wetterbericht von vor 17 Minuten, um 21:50 UTC
Wind 6 kt aus Nordost, variierte zwischen Nord/Nordost und Ost
Temperatur -5°C
Luftfeuchtigkeit 58%
Luftdruck 1033 hPa
Sichtweite 10 km oder mehr
keine Wolken unter 1500 m und keine Kumulonimbus oder Gewitterwolken

METAR: EDDT 242150Z 05006KT 020V090 CAVOK M05/M12 Q1033 NOSIG

Zeit: 23:07 (22:07 UTC)

Prognose

Neuester Wetterbericht von vor 5 Stunden und 7 Minuten, um 17:00 UTC
Gültige Prognose vom 24 um 18 UTC bis 25 um 18 UTC
Wind 6 kt aus Nordost
Sichtweite 10 km oder mehr
keine Wolken unter 1500 m und keine Kumulonimbus oder Gewitterwolken

TAF: EDDT 241700Z 2418/2518 05006KT CAVOK

Wetterbeobachtungen und Prognosen von mehr als 4000 Flughäfen (METAR und TAF Bericht).

Die verfügbaren Stationen werden durch gelbe und rote Markierungen auf der Karte dargestellt.

Führen Sie die Maus auf sie, um den Namen der Station zu sehen.

Darauf klicken, um die Beobachtung von Wetterbeobachtungen und Prognosen zu sehen.

Um die Karte zu ändern : klicken Sie auf den grünen Tasten mit einem schwarzen Kreuz Zum Vergrößern, auf den grünen Button mit einem Gedankenstrich zu verkleinern, oder auf die grünen Pfeile für benachbarte Karten.


METAR-TAF: